createdAt,value
2018-01-12T00:00:06.404Z,3.50
2018-01-12T00:02:32.662Z,3.50
2018-01-12T00:04:58.909Z,3.50
2018-01-12T00:07:25.140Z,3.50
2018-01-12T00:09:51.393Z,3.60
2018-01-12T00:12:17.648Z,3.60
2018-01-12T00:14:44.637Z,3.60
2018-01-12T00:17:10.875Z,3.50
2018-01-12T00:19:37.111Z,3.60
2018-01-12T00:22:03.343Z,3.60
2018-01-12T00:24:30.339Z,3.60
2018-01-12T00:26:56.838Z,3.60
2018-01-12T00:29:23.814Z,3.50
2018-01-12T00:31:50.051Z,3.50
2018-01-12T00:34:16.288Z,3.50
2018-01-12T00:36:42.542Z,3.50
2018-01-12T00:39:08.816Z,3.50
2018-01-12T00:41:35.083Z,3.60
2018-01-12T00:44:01.636Z,3.60
2018-01-12T00:46:27.921Z,3.60
2018-01-12T00:48:54.209Z,3.60
2018-01-12T00:51:20.467Z,3.60
2018-01-12T00:53:47.483Z,3.60
2018-01-12T00:56:13.779Z,3.60
2018-01-12T00:58:40.768Z,3.60
2018-01-12T01:01:07.021Z,3.60
2018-01-12T01:03:33.364Z,3.50
2018-01-12T01:05:59.614Z,3.50
2018-01-12T01:08:25.878Z,3.50
2018-01-12T01:10:52.136Z,3.60
2018-01-12T01:13:19.397Z,3.60
2018-01-12T01:15:46.357Z,3.60
2018-01-12T01:18:13.337Z,3.60
2018-01-12T01:20:39.592Z,3.60
2018-01-12T01:23:05.839Z,3.60
2018-01-12T01:25:32.092Z,3.50
2018-01-12T01:27:58.330Z,3.50
2018-01-12T01:30:24.828Z,3.50
2018-01-12T01:32:51.790Z,3.50
2018-01-12T01:35:18.741Z,3.50
2018-01-12T01:37:45.738Z,3.50
2018-01-12T01:40:11.946Z,3.50
2018-01-12T01:42:39.108Z,3.60
2018-01-12T01:45:06.067Z,3.60
2018-01-12T01:47:33.067Z,3.60
2018-01-12T01:49:59.287Z,3.60
2018-01-12T01:52:25.520Z,3.60
2018-01-12T01:54:51.782Z,3.60
2018-01-12T01:57:18.019Z,3.60
2018-01-12T01:59:44.545Z,3.60
2018-01-12T02:02:10.772Z,3.60
2018-01-12T02:04:37.765Z,3.60
2018-01-12T02:07:04.030Z,3.60
2018-01-12T02:09:30.260Z,3.60
2018-01-12T02:11:56.774Z,3.50
2018-01-12T02:14:23.008Z,3.50
2018-01-12T02:16:49.234Z,3.50
2018-01-12T02:19:16.244Z,3.50
2018-01-12T02:21:42.496Z,3.50
2018-01-12T02:24:08.726Z,3.50
2018-01-12T02:26:34.950Z,3.60
2018-01-12T02:29:01.240Z,3.50
2018-01-12T02:31:27.466Z,3.50
2018-01-12T02:33:53.696Z,3.50
2018-01-12T02:36:19.974Z,3.50
2018-01-12T02:38:46.947Z,3.50
2018-01-12T02:41:13.200Z,3.50
2018-01-12T02:43:39.450Z,3.40
2018-01-12T02:46:05.683Z,3.40
2018-01-12T02:48:31.951Z,3.40
2018-01-12T02:50:58.183Z,3.40
2018-01-12T02:53:24.428Z,3.40
2018-01-12T02:55:50.712Z,3.40
2018-01-12T02:58:17.680Z,3.30
2018-01-12T03:00:44.674Z,3.20
2018-01-12T03:03:10.954Z,3.20
2018-01-12T03:05:37.230Z,3.20
2018-01-12T03:08:03.455Z,3.20
2018-01-12T03:10:30.447Z,3.20
2018-01-12T03:12:56.699Z,3.20
2018-01-12T03:15:22.938Z,3.20
2018-01-12T03:17:49.183Z,3.20
2018-01-12T03:20:15.409Z,3.20
2018-01-12T03:22:41.674Z,3.20
2018-01-12T03:25:07.900Z,3.20
2018-01-12T03:27:34.148Z,3.20
2018-01-12T03:30:00.376Z,3.20
2018-01-12T03:32:26.629Z,3.20
2018-01-12T03:34:52.908Z,3.20
2018-01-12T03:37:19.143Z,3.20
2018-01-12T03:39:45.664Z,3.20
2018-01-12T03:42:11.929Z,3.20
2018-01-12T03:44:38.143Z,3.20
2018-01-12T03:47:04.381Z,3.20
2018-01-12T03:49:30.628Z,3.20
2018-01-12T03:51:56.890Z,3.20
2018-01-12T03:54:23.121Z,3.20
2018-01-12T03:56:49.384Z,3.20
2018-01-12T03:59:16.362Z,3.20
2018-01-12T04:01:44.216Z,3.30
2018-01-12T04:04:10.586Z,3.20
2018-01-12T04:06:36.820Z,3.30
2018-01-12T04:09:03.826Z,3.30
2018-01-12T04:11:30.057Z,3.30
2018-01-12T04:13:56.313Z,3.30
2018-01-12T04:16:22.529Z,3.30
2018-01-12T04:18:48.755Z,3.30
2018-01-12T04:21:15.010Z,3.40
2018-01-12T04:23:41.264Z,3.40
2018-01-12T04:26:07.544Z,3.40
2018-01-12T04:28:33.787Z,3.40
2018-01-12T04:31:00.016Z,3.40
2018-01-12T04:33:26.991Z,3.40
2018-01-12T04:35:53.994Z,3.40
2018-01-12T04:38:20.512Z,3.40
2018-01-12T04:40:46.749Z,3.40
2018-01-12T04:43:13.706Z,3.40
2018-01-12T04:45:39.942Z,3.40
2018-01-12T04:48:06.899Z,3.40
2018-01-12T04:50:34.144Z,3.40
2018-01-12T04:53:01.133Z,3.40
2018-01-12T04:55:27.398Z,3.30
2018-01-12T04:57:53.708Z,3.40
2018-01-12T05:00:20.695Z,3.30
2018-01-12T05:02:47.008Z,3.30
2018-01-12T05:05:13.981Z,3.40
2018-01-12T05:07:40.240Z,3.40
2018-01-12T05:10:06.484Z,3.30
2018-01-12T05:12:32.715Z,3.60
2018-01-12T05:14:58.974Z,4.20
2018-01-12T05:17:25.175Z,4.70
2018-01-12T05:19:51.709Z,5.00
2018-01-12T05:22:18.667Z,5.30
2018-01-12T05:24:45.650Z,5.50
2018-01-12T05:27:11.876Z,5.50
2018-01-12T05:29:38.135Z,5.70
2018-01-12T05:32:04.396Z,5.80
2018-01-12T05:34:30.608Z,5.90
2018-01-12T05:36:57.189Z,6.00
2018-01-12T05:39:23.420Z,6.30
2018-01-12T05:41:49.665Z,6.70
2018-01-12T05:44:15.937Z,7.00
2018-01-12T05:46:42.170Z,7.10
2018-01-12T05:49:08.420Z,7.20
2018-01-12T05:51:34.648Z,7.20
2018-01-12T05:54:01.169Z,7.30
2018-01-12T05:56:27.424Z,7.30
2018-01-12T05:58:53.660Z,7.20
2018-01-12T06:01:32.101Z,7.00
2018-01-12T06:04:10.485Z,6.80
2018-01-12T06:06:36.726Z,6.60
2018-01-12T06:09:03.031Z,6.40
2018-01-12T06:11:29.329Z,6.20
2018-01-12T06:13:55.662Z,6.10
2018-01-12T06:16:21.898Z,6.00
2018-01-12T06:18:48.148Z,6.00
2018-01-12T06:21:14.413Z,6.00
2018-01-12T06:23:40.692Z,6.10
2018-01-12T06:26:07.677Z,5.90
2018-01-12T06:28:33.917Z,5.90
2018-01-12T06:31:00.172Z,5.60
2018-01-12T06:33:26.401Z,5.30
2018-01-12T06:35:52.672Z,5.10
2018-01-12T06:38:19.033Z,4.90
2018-01-12T06:40:45.312Z,4.70
2018-01-12T06:43:11.585Z,4.60
2018-01-12T06:45:37.830Z,4.40
2018-01-12T06:48:04.063Z,4.30
2018-01-12T06:50:30.327Z,4.30
2018-01-12T06:52:56.556Z,4.10
2018-01-12T06:55:22.791Z,4.10
2018-01-12T06:57:49.051Z,4.10
2018-01-12T07:00:15.302Z,4.00
2018-01-12T07:02:41.658Z,3.90
2018-01-12T07:05:08.625Z,3.80
2018-01-12T07:07:35.610Z,3.70
2018-01-12T07:10:01.860Z,3.70
2018-01-12T07:12:28.144Z,3.60
2018-01-12T07:14:55.171Z,3.70
2018-01-12T07:17:21.419Z,3.60
2018-01-12T07:19:47.678Z,3.70
2018-01-12T07:22:22.882Z,3.70
2018-01-12T07:24:49.142Z,3.70
2018-01-12T07:27:15.390Z,3.80
2018-01-12T07:29:41.648Z,3.80
2018-01-12T07:32:07.890Z,3.80
2018-01-12T07:34:34.164Z,3.80
2018-01-12T07:37:00.382Z,3.90
2018-01-12T07:39:27.370Z,4.70
2018-01-12T07:41:53.627Z,4.70
2018-01-12T07:44:19.881Z,5.00
2018-01-12T07:46:46.160Z,5.20
2018-01-12T07:49:12.434Z,5.40
2018-01-12T07:51:38.673Z,5.30
2018-01-12T07:54:04.951Z,5.20
2018-01-12T07:56:31.227Z,5.00
2018-01-12T07:58:58.217Z,4.70
2018-01-12T08:01:30.368Z,4.70
2018-01-12T08:03:56.636Z,4.60
2018-01-12T08:06:22.851Z,4.50
2018-01-12T08:08:49.862Z,4.40
2018-01-12T08:11:16.103Z,4.30
2018-01-12T08:13:42.347Z,4.40
2018-01-12T08:16:08.564Z,4.40
2018-01-12T08:18:34.814Z,4.40
2018-01-12T08:21:01.081Z,4.50
2018-01-12T08:23:27.314Z,4.40
2018-01-12T08:25:53.575Z,4.40
2018-01-12T08:28:19.847Z,4.40
2018-01-12T08:30:46.073Z,4.40
2018-01-12T08:33:12.335Z,4.40
2018-01-12T08:35:38.588Z,4.40
2018-01-12T08:38:04.854Z,4.50
2018-01-12T08:40:31.096Z,4.80
2018-01-12T08:42:57.393Z,5.00
2018-01-12T08:45:23.634Z,5.20
2018-01-12T08:47:49.906Z,5.40
2018-01-12T08:50:16.139Z,5.40
2018-01-12T08:52:42.397Z,5.50
2018-01-12T08:55:08.653Z,5.50
2018-01-12T08:57:34.890Z,5.40
2018-01-12T09:00:01.144Z,5.20
2018-01-12T09:02:27.390Z,4.90
2018-01-12T09:04:53.661Z,4.70
2018-01-12T09:07:19.922Z,4.60
2018-01-12T09:09:46.448Z,4.60
2018-01-12T09:12:12.710Z,4.50
2018-01-12T09:14:50.250Z,4.50
2018-01-12T09:17:28.549Z,4.50
2018-01-12T09:20:07.220Z,4.50
2018-01-12T09:22:39.391Z,4.50
2018-01-12T09:25:05.642Z,4.50
2018-01-12T09:27:31.919Z,4.50
2018-01-12T09:29:58.188Z,4.60
2018-01-12T09:32:24.492Z,4.60
2018-01-12T09:35:06.374Z,4.60
2018-01-12T09:37:38.710Z,4.60
2018-01-12T09:40:20.927Z,4.60
2018-01-12T09:42:47.304Z,4.60
2018-01-12T09:45:13.518Z,4.60
2018-01-12T09:47:39.843Z,4.50
2018-01-12T09:50:06.153Z,4.50
2018-01-12T09:52:33.184Z,4.60
2018-01-12T09:54:59.435Z,4.60
2018-01-12T09:57:25.737Z,4.70
2018-01-12T09:59:52.045Z,4.80
2018-01-12T10:02:19.035Z,4.80
2018-01-12T10:04:45.283Z,4.70
2018-01-12T10:07:16.388Z,4.70
2018-01-12T10:09:48.629Z,4.70
2018-01-12T10:12:14.950Z,4.80
2018-01-12T10:14:41.218Z,4.90
2018-01-12T10:17:07.492Z,5.00
2018-01-12T10:19:33.776Z,5.10
2018-01-12T10:22:00.032Z,5.20
2018-01-12T10:24:26.315Z,5.20
2018-01-12T10:26:53.298Z,5.20
2018-01-12T10:29:25.456Z,5.10
2018-01-12T10:31:52.459Z,5.10
2018-01-12T10:34:42.576Z,5.10
2018-01-12T10:37:08.813Z,5.10
2018-01-12T10:39:35.075Z,5.10
2018-01-12T10:42:04.186Z,5.00
2018-01-12T10:44:30.438Z,5.10
2018-01-12T10:47:15.610Z,5.10
2018-01-12T10:49:54.062Z,5.20
2018-01-12T10:52:20.354Z,5.20
2018-01-12T10:54:46.597Z,5.20
2018-01-12T10:57:12.854Z,5.20
2018-01-12T10:59:39.159Z,5.20
2018-01-12T11:02:05.392Z,5.10
2018-01-12T11:04:31.664Z,5.10
2018-01-12T11:06:57.906Z,5.10
2018-01-12T11:09:24.163Z,5.00
2018-01-12T11:11:50.394Z,5.00
2018-01-12T11:14:16.649Z,4.90
2018-01-12T11:16:42.876Z,4.80
2018-01-12T11:19:09.121Z,4.80
2018-01-12T11:21:35.373Z,4.80
2018-01-12T11:24:01.644Z,4.70
2018-01-12T11:26:27.891Z,4.70
2018-01-12T11:28:54.137Z,4.70
2018-01-12T11:31:20.368Z,4.80
2018-01-12T11:33:47.357Z,4.90
2018-01-12T11:36:13.616Z,4.90
2018-01-12T11:38:39.877Z,4.90
2018-01-12T11:41:06.123Z,4.90
2018-01-12T11:43:32.403Z,5.00
2018-01-12T11:45:58.679Z,5.00
2018-01-12T11:48:24.931Z,5.00
2018-01-12T11:50:51.230Z,5.00
2018-01-12T11:53:17.503Z,5.00
2018-01-12T11:55:43.791Z,5.10
2018-01-12T11:58:10.859Z,5.10
2018-01-12T12:00:37.103Z,5.10
2018-01-12T12:03:03.363Z,5.10
2018-01-12T12:05:29.616Z,5.20
2018-01-12T12:07:55.871Z,5.20
2018-01-12T12:10:22.120Z,5.30
2018-01-12T12:12:48.376Z,5.40
2018-01-12T12:15:14.627Z,5.40
2018-01-12T12:17:41.601Z,5.50
2018-01-12T12:20:08.690Z,5.60
2018-01-12T12:22:34.916Z,5.50
2018-01-12T12:25:01.187Z,5.60
2018-01-12T12:27:27.426Z,5.60
2018-01-12T12:29:53.689Z,5.60
2018-01-12T12:32:19.926Z,5.60
2018-01-12T12:34:46.182Z,5.60
2018-01-12T12:37:13.164Z,5.50
2018-01-12T12:39:39.433Z,5.50
2018-01-12T12:42:05.698Z,5.40
2018-01-12T12:44:31.966Z,5.40
2018-01-12T12:46:58.984Z,5.50
2018-01-12T12:49:25.224Z,5.50
2018-01-12T12:51:51.487Z,5.80
2018-01-12T12:54:17.746Z,5.90
2018-01-12T12:56:44.013Z,6.10
2018-01-12T12:59:10.283Z,6.20
2018-01-12T13:01:36.551Z,6.20
2018-01-12T13:04:02.835Z,6.00
2018-01-12T13:06:29.117Z,5.70
2018-01-12T13:08:55.438Z,5.40
2018-01-12T13:11:21.724Z,5.20
2018-01-12T13:13:47.981Z,5.10
2018-01-12T13:16:14.288Z,5.00
2018-01-12T13:18:40.563Z,5.00
2018-01-12T13:21:07.558Z,5.00
2018-01-12T13:23:33.820Z,5.00
2018-01-12T13:26:00.084Z,4.90
2018-01-12T13:28:26.389Z,4.90
2018-01-12T13:30:52.658Z,4.90
2018-01-12T13:33:18.888Z,4.90
2018-01-12T13:35:45.161Z,4.90
2018-01-12T13:38:11.430Z,4.90
2018-01-12T13:40:37.668Z,4.80
2018-01-12T13:43:04.032Z,4.80
2018-01-12T13:45:30.354Z,4.70
2018-01-12T13:47:56.857Z,4.60
2018-01-12T13:50:23.115Z,4.60
2018-01-12T13:52:49.372Z,4.60
2018-01-12T13:55:16.384Z,4.60
2018-01-12T13:57:42.618Z,4.60
2018-01-12T14:00:08.935Z,4.60
2018-01-12T14:02:35.218Z,4.60
2018-01-12T14:05:01.478Z,4.60
2018-01-12T14:07:27.806Z,4.60
2018-01-12T14:09:54.037Z,4.60
2018-01-12T14:12:20.300Z,4.60
2018-01-12T14:14:46.567Z,4.60
2018-01-12T14:17:12.862Z,4.60
2018-01-12T14:19:39.125Z,4.60
2018-01-12T14:22:05.380Z,4.60
2018-01-12T14:24:31.629Z,4.60
2018-01-12T14:26:58.629Z,4.60
2018-01-12T14:29:24.869Z,4.60
2018-01-12T14:31:51.173Z,4.60
2018-01-12T14:34:17.446Z,4.60
2018-01-12T14:36:43.732Z,4.60
2018-01-12T14:39:10.743Z,4.60
2018-01-12T14:41:37.022Z,4.50
2018-01-12T14:44:03.253Z,4.50
2018-01-12T14:46:29.514Z,4.50
2018-01-12T14:48:56.527Z,4.50
2018-01-12T14:51:22.802Z,4.50
2018-01-12T14:53:49.076Z,4.50
2018-01-12T14:56:15.305Z,4.50
2018-01-12T14:58:42.338Z,4.50
2018-01-12T15:01:08.597Z,4.50
2018-01-12T15:03:34.864Z,4.50
2018-01-12T15:06:01.154Z,4.40
2018-01-12T15:08:27.411Z,4.40
2018-01-12T15:10:53.680Z,4.40
2018-01-12T15:13:20.662Z,4.40
2018-01-12T15:15:46.980Z,4.40
2018-01-12T15:18:13.961Z,4.30
2018-01-12T15:20:40.226Z,4.30
2018-01-12T15:23:06.488Z,4.20
2018-01-12T15:25:32.767Z,4.20
2018-01-12T15:27:59.288Z,4.20
2018-01-12T15:30:25.549Z,4.20
2018-01-12T15:32:52.536Z,4.20
2018-01-12T15:35:18.794Z,4.20
2018-01-12T15:37:45.079Z,4.10
2018-01-12T15:40:12.097Z,4.10
2018-01-12T15:42:38.362Z,4.00
2018-01-12T15:45:04.634Z,4.10
2018-01-12T15:47:31.625Z,4.00
2018-01-12T15:49:57.883Z,4.00
2018-01-12T15:52:24.159Z,4.00
2018-01-12T15:54:51.215Z,4.00
2018-01-12T15:57:18.404Z,4.00
2018-01-12T15:59:44.679Z,4.00
2018-01-12T16:02:11.569Z,4.00
2018-01-12T16:04:38.570Z,4.00
2018-01-12T16:07:04.837Z,4.00
2018-01-12T16:09:31.138Z,3.90
2018-01-12T16:11:57.420Z,3.90
2018-01-12T16:14:23.677Z,3.90
2018-01-12T16:16:49.932Z,3.90
2018-01-12T16:19:16.211Z,3.90
2018-01-12T16:21:42.465Z,3.90
2018-01-12T16:24:08.718Z,3.90
2018-01-12T16:26:34.982Z,3.90
2018-01-12T16:29:01.237Z,3.90
2018-01-12T16:31:27.501Z,3.90
2018-01-12T16:33:53.778Z,3.90
2018-01-12T16:36:20.023Z,3.90
2018-01-12T16:38:46.293Z,4.00
2018-01-12T16:41:12.593Z,3.90
2018-01-12T16:43:38.895Z,3.90
2018-01-12T16:46:05.954Z,3.90
2018-01-12T16:48:32.968Z,3.90
2018-01-12T16:50:59.208Z,3.90
2018-01-12T16:53:25.520Z,3.90
2018-01-12T16:55:51.774Z,3.90
2018-01-12T16:58:18.059Z,3.90
2018-01-12T17:00:44.311Z,3.90
2018-01-12T17:03:11.413Z,3.90
2018-01-12T17:05:37.673Z,3.90
2018-01-12T17:08:03.950Z,3.90
2018-01-12T17:10:30.226Z,3.80
2018-01-12T17:12:56.481Z,3.80
2018-01-12T17:15:22.767Z,3.80
2018-01-12T17:17:49.023Z,3.80
2018-01-12T17:20:16.001Z,3.80
2018-01-12T17:22:42.248Z,3.80
2018-01-12T17:25:08.541Z,3.80
2018-01-12T17:27:34.832Z,3.80
2018-01-12T17:30:01.127Z,3.90
2018-01-12T17:32:27.400Z,3.90
2018-01-12T17:34:53.697Z,3.90
2018-01-12T17:37:19.983Z,3.90
2018-01-12T17:39:46.257Z,3.90
2018-01-12T17:42:12.516Z,3.90
2018-01-12T17:44:38.800Z,3.80
2018-01-12T17:47:05.098Z,3.80
2018-01-12T17:49:31.379Z,3.80
2018-01-12T17:51:58.363Z,3.70
2018-01-12T17:54:24.636Z,3.70
2018-01-12T17:56:51.216Z,3.70
2018-01-12T17:59:18.274Z,3.70
2018-01-12T18:01:44.562Z,3.70
2018-01-12T18:04:10.920Z,3.80
2018-01-12T18:06:37.224Z,3.80
2018-01-12T18:09:03.604Z,3.80
2018-01-12T18:11:29.923Z,3.80
2018-01-12T18:13:56.218Z,3.80
2018-01-12T18:16:22.500Z,3.80
2018-01-12T18:18:49.692Z,3.80
2018-01-12T18:21:16.008Z,3.80
2018-01-12T18:23:42.312Z,3.80
2018-01-12T18:26:08.664Z,3.80
2018-01-12T18:28:35.745Z,3.70
2018-01-12T18:31:02.086Z,3.70
2018-01-12T18:33:28.422Z,3.70
2018-01-12T18:35:55.425Z,3.70
2018-01-12T18:38:21.692Z,3.70
2018-01-12T18:40:47.983Z,3.70
2018-01-12T18:43:14.276Z,3.70
2018-01-12T18:45:40.580Z,3.70
2018-01-12T18:48:06.900Z,3.70
2018-01-12T18:50:33.236Z,3.70
2018-01-12T18:53:00.376Z,3.80
2018-01-12T18:55:26.706Z,3.80
2018-01-12T18:57:53.043Z,3.80
2018-01-12T19:00:19.339Z,3.80
2018-01-12T19:02:45.723Z,3.70
2018-01-12T19:05:12.036Z,3.70
2018-01-12T19:07:38.311Z,3.70
2018-01-12T19:10:04.747Z,3.70
2018-01-12T19:12:31.061Z,3.70
2018-01-12T19:14:57.354Z,3.70
2018-01-12T19:17:23.658Z,3.70
2018-01-12T19:19:49.994Z,3.70
2018-01-12T19:22:16.359Z,3.70
2018-01-12T19:24:42.681Z,3.70
2018-01-12T19:27:09.031Z,3.70
2018-01-12T19:29:35.313Z,3.80
2018-01-12T19:32:01.649Z,3.80
2018-01-12T19:34:27.986Z,3.80
2018-01-12T19:36:54.290Z,3.90
2018-01-12T19:39:20.606Z,3.90
2018-01-12T19:41:46.975Z,3.90
2018-01-12T19:44:13.315Z,3.90
2018-01-12T19:46:39.642Z,4.00
2018-01-12T19:49:05.962Z,4.00
2018-01-12T19:51:33.054Z,3.90
2018-01-12T19:53:59.437Z,3.90
2018-01-12T19:56:25.749Z,3.80
2018-01-12T19:58:52.100Z,3.80
2018-01-12T20:01:18.418Z,3.80
2018-01-12T20:03:44.827Z,3.80
2018-01-12T20:06:11.180Z,3.80
2018-01-12T20:08:38.273Z,3.80
2018-01-12T20:11:04.665Z,3.80
2018-01-12T20:13:31.026Z,3.80
2018-01-12T20:15:58.153Z,3.80
2018-01-12T20:18:24.507Z,3.80
2018-01-12T20:20:50.884Z,3.70
2018-01-12T20:23:17.990Z,3.70
2018-01-12T20:25:44.400Z,3.70
2018-01-12T20:28:10.786Z,3.70
2018-01-12T20:30:37.121Z,3.70
2018-01-12T20:33:03.510Z,3.70
2018-01-12T20:35:30.620Z,3.60
2018-01-12T20:37:56.975Z,3.60
2018-01-12T20:40:23.355Z,3.60
2018-01-12T20:42:49.772Z,3.60
2018-01-12T20:45:16.193Z,3.60
2018-01-12T20:47:42.581Z,3.60
2018-01-12T20:50:08.966Z,3.60
2018-01-12T20:52:35.586Z,3.70
2018-01-12T20:55:01.937Z,3.70
2018-01-12T20:57:28.290Z,3.70
2018-01-12T20:59:55.687Z,3.70
2018-01-12T21:02:22.046Z,3.80
2018-01-12T21:04:48.403Z,3.80
2018-01-12T21:07:14.748Z,3.80
2018-01-12T21:09:41.205Z,3.80
2018-01-12T21:12:08.301Z,3.70
2018-01-12T21:14:34.621Z,3.70
2018-01-12T21:17:01.035Z,3.70
2018-01-12T21:19:27.336Z,3.70
2018-01-12T21:21:53.671Z,3.70
2018-01-12T21:24:19.951Z,3.60
2018-01-12T21:26:46.280Z,3.60
2018-01-12T21:29:12.602Z,3.60
2018-01-12T21:31:38.885Z,3.50
2018-01-12T21:34:05.424Z,3.50
2018-01-12T21:36:32.652Z,3.50
2018-01-12T21:38:58.976Z,3.50
2018-01-12T21:41:25.274Z,3.50
2018-01-12T21:43:51.611Z,3.50
2018-01-12T21:46:17.912Z,3.50
2018-01-12T21:48:44.234Z,3.50
2018-01-12T21:51:11.318Z,3.50
2018-01-12T21:53:37.704Z,3.50
2018-01-12T21:56:04.046Z,3.50
2018-01-12T21:58:30.354Z,3.50
2018-01-12T22:00:56.645Z,3.50
2018-01-12T22:03:23.024Z,3.50
2018-01-12T22:05:49.361Z,3.50
2018-01-12T22:08:15.725Z,3.50
2018-01-12T22:10:42.046Z,3.50
2018-01-12T22:13:09.132Z,3.50
2018-01-12T22:15:35.378Z,3.40
2018-01-12T22:18:01.622Z,3.40
2018-01-12T22:20:27.900Z,3.50
2018-01-12T22:22:54.198Z,3.50
2018-01-12T22:25:20.482Z,3.50
2018-01-12T22:27:46.740Z,3.50
2018-01-12T22:30:13.026Z,3.50
2018-01-12T22:32:39.289Z,3.50
2018-01-12T22:35:05.597Z,3.50
2018-01-12T22:37:31.872Z,3.50
2018-01-12T22:39:58.150Z,3.50
2018-01-12T22:42:24.448Z,3.50
2018-01-12T22:44:50.719Z,3.40
2018-01-12T22:47:17.017Z,3.40
2018-01-12T22:49:43.279Z,3.40
2018-01-12T22:52:09.540Z,3.40
2018-01-12T22:54:35.817Z,3.40
2018-01-12T22:57:02.838Z,3.40
2018-01-12T22:59:29.138Z,3.40
2018-01-12T23:01:55.376Z,3.40
2018-01-12T23:04:21.622Z,3.40
2018-01-12T23:06:47.905Z,3.40
2018-01-12T23:09:14.189Z,3.40
2018-01-12T23:11:41.220Z,3.50
2018-01-12T23:14:07.456Z,3.40
2018-01-12T23:16:33.714Z,3.50
2018-01-12T23:19:00.713Z,3.50
2018-01-12T23:21:26.956Z,3.50
2018-01-12T23:23:53.241Z,3.50
2018-01-12T23:26:19.471Z,3.50
2018-01-12T23:28:45.700Z,3.50
2018-01-12T23:31:11.963Z,3.50
2018-01-12T23:33:38.221Z,3.50
2018-01-12T23:36:04.492Z,3.50
2018-01-12T23:38:30.699Z,3.50
2018-01-12T23:40:57.671Z,3.50
2018-01-12T23:43:23.959Z,3.50
2018-01-12T23:45:50.198Z,3.50
2018-01-12T23:48:16.737Z,3.40
2018-01-12T23:50:42.990Z,3.50
2018-01-12T23:53:09.259Z,3.40
2018-01-12T23:55:35.538Z,3.50
2018-01-12T23:58:01.767Z,3.50
